<?xml version="1.0" encoding="UTF-8" standalone="no" ?>
<gpx xmlns="http://www.topografix.com/GPX/1/1" xmlns:xsi="http://www.w3.org/2001/XMLSchema-instance" xsi:schemaLocation="http://www.topografix.com/GPX/1/1 http://www.topografix.com/GPX/1/1/gpx.xsd" version="1.1" creator="VisuGPX - https://www.visugpx.com">
  <metadata>
    <name>Ajout Pyrénées</name>
    <desc><![CDATA[Randonnée sur le GR®654 Via Lemovicensis vers Saint-Jacques-de-Compostelle à travers les Landes et les Pyrénées-Atlantiques de Mont-de-Marsan à Saint-Palais. Gîtes d'étapes, Chambres d'hôtes, Maison d'hôtes, Hôtels, Camping, Refuges, Auberges, Commerces.]]></desc>
  </metadata>
  <trk>
    <name><![CDATA[Tour des trois villages au pays Toy (Hautes-Pyrénées) (2021)]]></name>
    <desc><![CDATA[Randonnée dans le pays Toy en Hautes-Pyrénées autour des trois villages au départ de Sazos. Gîtes d'étapes, Chambres d'hôtes, Maison d'hôtes, Hôtels, Camping, Refuges, Auberges, Commerces.]]></desc>
    <extensions>
      <line xmlns="http://www.topografix.com/GPX/gpx_style/0/2">
        <color>000000</color>
        <width>4</width>
      </line>
    </extensions>
    <trkseg>
      <trkpt lat="42.88387" lon="-0.02507">
        <ele>841.283</ele>
        <time>2021-10-25T15:49:56Z</time>
      </trkpt>
      <trkpt lat="42.88382" lon="-0.02534">
        <ele>846.325</ele>
        <time>2021-10-25T15:50:36Z</time>
      </trkpt>
      <trkpt lat="42.88377" lon="-0.02548">
        <ele>850.817</ele>
        <time>2021-10-25T15:51:16Z</time>
      </trkpt>
      <trkpt lat="42.88377" lon="-0.02554">
        <ele>851.908</ele>
        <time>2021-10-25T15:51:56Z</time>
      </trkpt>
      <trkpt lat="42.88418" lon="-0.02589">
        <ele>848.576</ele>
        <time>2021-10-25T15:52:36Z</time>
      </trkpt>
      <trkpt lat="42.88437" lon="-0.02593">
        <ele>845.825</ele>
        <time>2021-10-25T15:53:16Z</time>
      </trkpt>
      <trkpt lat="42.8845" lon="-0.02599">
        <ele>845.251</ele>
        <time>2021-10-25T15:53:56Z</time>
      </trkpt>
      <trkpt lat="42.88475" lon="-0.02638">
        <ele>849.164</ele>
        <time>2021-10-25T15:54:36Z</time>
      </trkpt>
      <trkpt lat="42.88494" lon="-0.02665">
        <ele>849.219</ele>
        <time>2021-10-25T15:55:16Z</time>
      </trkpt>
      <trkpt lat="42.88508" lon="-0.02693">
        <ele>853.112</ele>
        <time>2021-10-25T15:55:56Z</time>
      </trkpt>
      <trkpt lat="42.88509" lon="-0.02703">
        <ele>855.322</ele>
        <time>2021-10-25T15:56:36Z</time>
      </trkpt>
      <trkpt lat="42.88506" lon="-0.02716">
        <ele>859.262</ele>
        <time>2021-10-25T15:57:16Z</time>
      </trkpt>
      <trkpt lat="42.88505" lon="-0.02732">
        <ele>863.924</ele>
        <time>2021-10-25T15:57:56Z</time>
      </trkpt>
      <trkpt lat="42.88503" lon="-0.02744">
        <ele>867.704</ele>
        <time>2021-10-25T15:58:36Z</time>
      </trkpt>
      <trkpt lat="42.88514" lon="-0.02811">
        <ele>880.714</ele>
        <time>2021-10-25T15:59:16Z</time>
      </trkpt>
      <trkpt lat="42.88527" lon="-0.02857">
        <ele>887.908</ele>
        <time>2021-10-25T15:59:56Z</time>
      </trkpt>
      <trkpt lat="42.88537" lon="-0.02873">
        <ele>892.14</ele>
        <time>2021-10-25T16:00:36Z</time>
      </trkpt>
      <trkpt lat="42.88547" lon="-0.02882">
        <ele>894.449</ele>
        <time>2021-10-25T16:01:16Z</time>
      </trkpt>
      <trkpt lat="42.88569" lon="-0.02897">
        <ele>898.375</ele>
        <time>2021-10-25T16:01:56Z</time>
      </trkpt>
      <trkpt lat="42.88628" lon="-0.02928">
        <ele>899.548</ele>
        <time>2021-10-25T16:02:36Z</time>
      </trkpt>
      <trkpt lat="42.88637" lon="-0.02936">
        <ele>900.413</ele>
        <time>2021-10-25T16:03:16Z</time>
      </trkpt>
      <trkpt lat="42.8864" lon="-0.02948">
        <ele>903.056</ele>
        <time>2021-10-25T16:03:56Z</time>
      </trkpt>
      <trkpt lat="42.8864" lon="-0.02967">
        <ele>908.336</ele>
        <time>2021-10-25T16:04:36Z</time>
      </trkpt>
      <trkpt lat="42.88638" lon="-0.0298">
        <ele>912.746</ele>
        <time>2021-10-25T16:05:16Z</time>
      </trkpt>
      <trkpt lat="42.88631" lon="-0.0299">
        <ele>916.216</ele>
        <time>2021-10-25T16:05:56Z</time>
      </trkpt>
      <trkpt lat="42.88616" lon="-0.02996">
        <ele>919.276</ele>
        <time>2021-10-25T16:06:36Z</time>
      </trkpt>
      <trkpt lat="42.88605" lon="-0.03003">
        <ele>923.413</ele>
        <time>2021-10-25T16:07:16Z</time>
      </trkpt>
      <trkpt lat="42.88604" lon="-0.03018">
        <ele>929.308</ele>
        <time>2021-10-25T16:07:56Z</time>
      </trkpt>
      <trkpt lat="42.88616" lon="-0.03023">
        <ele>929.749</ele>
        <time>2021-10-25T16:08:36Z</time>
      </trkpt>
      <trkpt lat="42.88635" lon="-0.03026">
        <ele>928.848</ele>
        <time>2021-10-25T16:09:16Z</time>
      </trkpt>
      <trkpt lat="42.88655" lon="-0.03026">
        <ele>927.864</ele>
        <time>2021-10-25T16:09:56Z</time>
      </trkpt>
      <trkpt lat="42.88677" lon="-0.03023">
        <ele>926.037</ele>
        <time>2021-10-25T16:10:36Z</time>
      </trkpt>
      <trkpt lat="42.88688" lon="-0.03027">
        <ele>926.942</ele>
        <time>2021-10-25T16:11:16Z</time>
      </trkpt>
      <trkpt lat="42.88694" lon="-0.03036">
        <ele>929.315</ele>
        <time>2021-10-25T16:11:56Z</time>
      </trkpt>
      <trkpt lat="42.88689" lon="-0.03055">
        <ele>935.235</ele>
        <time>2021-10-25T16:12:36Z</time>
      </trkpt>
      <trkpt lat="42.88665" lon="-0.03059">
        <ele>938.285</ele>
        <time>2021-10-25T16:13:16Z</time>
      </trkpt>
      <trkpt lat="42.88679" lon="-0.03072">
        <ele>941.378</ele>
        <time>2021-10-25T16:13:56Z</time>
      </trkpt>
      <trkpt lat="42.88697" lon="-0.03088">
        <ele>944.033</ele>
        <time>2021-10-25T16:14:36Z</time>
      </trkpt>
      <trkpt lat="42.88723" lon="-0.03104">
        <ele>946.026</ele>
        <time>2021-10-25T16:15:16Z</time>
      </trkpt>
      <trkpt lat="42.88734" lon="-0.03116">
        <ele>949.408</ele>
        <time>2021-10-25T16:15:56Z</time>
      </trkpt>
      <trkpt lat="42.88743" lon="-0.03123">
        <ele>950.725</ele>
        <time>2021-10-25T16:16:36Z</time>
      </trkpt>
      <trkpt lat="42.8879" lon="-0.03145">
        <ele>958.524</ele>
        <time>2021-10-25T16:17:16Z</time>
      </trkpt>
      <trkpt lat="42.88832" lon="-0.03159">
        <ele>967.94</ele>
        <time>2021-10-25T16:17:56Z</time>
      </trkpt>
      <trkpt lat="42.88832" lon="-0.03159">
        <ele>967.913</ele>
        <time>2021-10-25T16:18:36Z</time>
      </trkpt>
      <trkpt lat="42.88845" lon="-0.0315">
        <ele>969.658</ele>
        <time>2021-10-25T16:19:16Z</time>
      </trkpt>
      <trkpt lat="42.88853" lon="-0.03139">
        <ele>970.241</ele>
        <time>2021-10-25T16:19:56Z</time>
      </trkpt>
      <trkpt lat="42.88854" lon="-0.03128">
        <ele>969.351</ele>
        <time>2021-10-25T16:20:36Z</time>
      </trkpt>
      <trkpt lat="42.88851" lon="-0.03107">
        <ele>966.311</ele>
        <time>2021-10-25T16:21:16Z</time>
      </trkpt>
      <trkpt lat="42.8886" lon="-0.03121">
        <ele>969.763</ele>
        <time>2021-10-25T16:21:56Z</time>
      </trkpt>
      <trkpt lat="42.88864" lon="-0.03125">
        <ele>970.944</ele>
        <time>2021-10-25T16:22:36Z</time>
      </trkpt>
      <trkpt lat="42.8887" lon="-0.03132">
        <ele>972.718</ele>
        <time>2021-10-25T16:23:16Z</time>
      </trkpt>
      <trkpt lat="42.88882" lon="-0.03159">
        <ele>978.008</ele>
        <time>2021-10-25T16:23:56Z</time>
      </trkpt>
      <trkpt lat="42.88883" lon="-0.03164">
        <ele>978.794</ele>
        <time>2021-10-25T16:24:36Z</time>
      </trkpt>
      <trkpt lat="42.88884" lon="-0.03182">
        <ele>981.373</ele>
        <time>2021-10-25T16:25:16Z</time>
      </trkpt>
      <trkpt lat="42.88886" lon="-0.03199">
        <ele>983.819</ele>
        <time>2021-10-25T16:25:56Z</time>
      </trkpt>
      <trkpt lat="42.88891" lon="-0.03205">
        <ele>985.672</ele>
        <time>2021-10-25T16:26:36Z</time>
      </trkpt>
      <trkpt lat="42.88905" lon="-0.03199">
        <ele>988.047</ele>
        <time>2021-10-25T16:27:16Z</time>
      </trkpt>
      <trkpt lat="42.88916" lon="-0.03208">
        <ele>991.48</ele>
        <time>2021-10-25T16:27:56Z</time>
      </trkpt>
      <trkpt lat="42.88923" lon="-0.03222">
        <ele>994.24</ele>
        <time>2021-10-25T16:28:36Z</time>
      </trkpt>
      <trkpt lat="42.88931" lon="-0.03243">
        <ele>999.41</ele>
        <time>2021-10-25T16:29:16Z</time>
      </trkpt>
      <trkpt lat="42.88941" lon="-0.0324">
        <ele>1001.537</ele>
        <time>2021-10-25T16:29:56Z</time>
      </trkpt>
      <trkpt lat="42.88949" lon="-0.03243">
        <ele>1003.749</ele>
        <time>2021-10-25T16:30:36Z</time>
      </trkpt>
      <trkpt lat="42.8896" lon="-0.03244">
        <ele>1005.813</ele>
        <time>2021-10-25T16:31:16Z</time>
      </trkpt>
      <trkpt lat="42.88972" lon="-0.0325">
        <ele>1009.008</ele>
        <time>2021-10-25T16:31:56Z</time>
      </trkpt>
      <trkpt lat="42.8897" lon="-0.03259">
        <ele>1010.581</ele>
        <time>2021-10-25T16:32:36Z</time>
      </trkpt>
      <trkpt lat="42.88988" lon="-0.03284">
        <ele>1018.42</ele>
        <time>2021-10-25T16:33:16Z</time>
      </trkpt>
      <trkpt lat="42.89008" lon="-0.03299">
        <ele>1022.776</ele>
        <time>2021-10-25T16:33:56Z</time>
      </trkpt>
      <trkpt lat="42.89039" lon="-0.03311">
        <ele>1027.589</ele>
        <time>2021-10-25T16:34:36Z</time>
      </trkpt>
      <trkpt lat="42.8906" lon="-0.03326">
        <ele>1034.044</ele>
        <time>2021-10-25T16:35:16Z</time>
      </trkpt>
      <trkpt lat="42.89105" lon="-0.03343">
        <ele>1036.287</ele>
        <time>2021-10-25T16:35:56Z</time>
      </trkpt>
      <trkpt lat="42.89151" lon="-0.03374">
        <ele>1038.677</ele>
        <time>2021-10-25T16:36:36Z</time>
      </trkpt>
      <trkpt lat="42.89166" lon="-0.03389">
        <ele>1041.537</ele>
        <time>2021-10-25T16:37:16Z</time>
      </trkpt>
      <trkpt lat="42.89181" lon="-0.03417">
        <ele>1050.494</ele>
        <time>2021-10-25T16:37:56Z</time>
      </trkpt>
      <trkpt lat="42.89195" lon="-0.03435">
        <ele>1055.557</ele>
        <time>2021-10-25T16:38:36Z</time>
      </trkpt>
      <trkpt lat="42.89274" lon="-0.03466">
        <ele>1053.522</ele>
        <time>2021-10-25T16:39:16Z</time>
      </trkpt>
      <trkpt lat="42.89307" lon="-0.03476">
        <ele>1050.408</ele>
        <time>2021-10-25T16:39:56Z</time>
      </trkpt>
      <trkpt lat="42.89324" lon="-0.03487">
        <ele>1051.787</ele>
        <time>2021-10-25T16:40:36Z</time>
      </trkpt>
      <trkpt lat="42.89346" lon="-0.03507">
        <ele>1054.526</ele>
        <time>2021-10-25T16:41:16Z</time>
      </trkpt>
      <trkpt lat="42.89373" lon="-0.03534">
        <ele>1057.912</ele>
        <time>2021-10-25T16:41:56Z</time>
      </trkpt>
      <trkpt lat="42.89394" lon="-0.03564">
        <ele>1062.225</ele>
        <time>2021-10-25T16:42:36Z</time>
      </trkpt>
      <trkpt lat="42.89407" lon="-0.03589">
        <ele>1068.23</ele>
        <time>2021-10-25T16:43:16Z</time>
      </trkpt>
      <trkpt lat="42.8943" lon="-0.03613">
        <ele>1071.153</ele>
        <time>2021-10-25T16:43:56Z</time>
      </trkpt>
      <trkpt lat="42.89458" lon="-0.03635">
        <ele>1071.973</ele>
        <time>2021-10-25T16:44:36Z</time>
      </trkpt>
      <trkpt lat="42.89486" lon="-0.03643">
        <ele>1070.823</ele>
        <time>2021-10-25T16:45:16Z</time>
      </trkpt>
      <trkpt lat="42.89511" lon="-0.03645">
        <ele>1073.619</ele>
        <time>2021-10-25T16:45:56Z</time>
      </trkpt>
      <trkpt lat="42.89535" lon="-0.03639">
        <ele>1078.809</ele>
        <time>2021-10-25T16:46:36Z</time>
      </trkpt>
      <trkpt lat="42.89588" lon="-0.03598">
        <ele>1079.619</ele>
        <time>2021-10-25T16:47:16Z</time>
      </trkpt>
      <trkpt lat="42.89632" lon="-0.03616">
        <ele>1084.008</ele>
        <time>2021-10-25T16:47:56Z</time>
      </trkpt>
      <trkpt lat="42.89667" lon="-0.03637">
        <ele>1083.629</ele>
        <time>2021-10-25T16:48:36Z</time>
      </trkpt>
      <trkpt lat="42.89689" lon="-0.03641">
        <ele>1077.288</ele>
        <time>2021-10-25T16:49:16Z</time>
      </trkpt>
      <trkpt lat="42.89723" lon="-0.03671">
        <ele>1082.214</ele>
        <time>2021-10-25T16:49:56Z</time>
      </trkpt>
      <trkpt lat="42.89735" lon="-0.03676">
        <ele>1081.377</ele>
        <time>2021-10-25T16:50:36Z</time>
      </trkpt>
      <trkpt lat="42.89754" lon="-0.03681">
        <ele>1077.612</ele>
        <time>2021-10-25T16:51:16Z</time>
      </trkpt>
      <trkpt lat="42.89797" lon="-0.03727">
        <ele>1092.845</ele>
        <time>2021-10-25T16:51:56Z</time>
      </trkpt>
      <trkpt lat="42.89813" lon="-0.03738">
        <ele>1094.765</ele>
        <time>2021-10-25T16:52:36Z</time>
      </trkpt>
      <trkpt lat="42.89856" lon="-0.03758">
        <ele>1093.425</ele>
        <time>2021-10-25T16:53:16Z</time>
      </trkpt>
      <trkpt lat="42.89896" lon="-0.03781">
        <ele>1092.814</ele>
        <time>2021-10-25T16:53:56Z</time>
      </trkpt>
      <trkpt lat="42.89911" lon="-0.03798">
        <ele>1096.254</ele>
        <time>2021-10-25T16:54:36Z</time>
      </trkpt>
      <trkpt lat="42.89932" lon="-0.03891">
        <ele>1136.709</ele>
        <time>2021-10-25T16:55:16Z</time>
      </trkpt>
      <trkpt lat="42.89957" lon="-0.03975">
        <ele>1159.808</ele>
        <time>2021-10-25T16:55:56Z</time>
      </trkpt>
      <trkpt lat="42.89959" lon="-0.04029">
        <ele>1165.299</ele>
        <time>2021-10-25T16:56:36Z</time>
      </trkpt>
      <trkpt lat="42.89962" lon="-0.04068">
        <ele>1160.118</ele>
        <time>2021-10-25T16:57:16Z</time>
      </trkpt>
      <trkpt lat="42.89957" lon="-0.04088">
        <ele>1162.114</ele>
        <time>2021-10-25T16:57:56Z</time>
      </trkpt>
      <trkpt lat="42.8995" lon="-0.04103">
        <ele>1165.797</ele>
        <time>2021-10-25T16:58:36Z</time>
      </trkpt>
      <trkpt lat="42.89925" lon="-0.04154">
        <ele>1172.262</ele>
        <time>2021-10-25T16:59:16Z</time>
      </trkpt>
      <trkpt lat="42.89908" lon="-0.04194">
        <ele>1171.965</ele>
        <time>2021-10-25T16:59:56Z</time>
      </trkpt>
      <trkpt lat="42.89892" lon="-0.04246">
        <ele>1169.325</ele>
        <time>2021-10-25T17:00:36Z</time>
      </trkpt>
      <trkpt lat="42.89889" lon="-0.04265">
        <ele>1167.975</ele>
        <time>2021-10-25T17:01:16Z</time>
      </trkpt>
      <trkpt lat="42.89891" lon="-0.04289">
        <ele>1164.133</ele>
        <time>2021-10-25T17:01:56Z</time>
      </trkpt>
      <trkpt lat="42.89895" lon="-0.04305">
        <ele>1160.723</ele>
        <time>2021-10-25T17:02:36Z</time>
      </trkpt>
      <trkpt lat="42.89906" lon="-0.04324">
        <ele>1153.615</ele>
        <time>2021-10-25T17:03:16Z</time>
      </trkpt>
      <trkpt lat="42.89915" lon="-0.04345">
        <ele>1148.808</ele>
        <time>2021-10-25T17:03:56Z</time>
      </trkpt>
      <trkpt lat="42.89918" lon="-0.04365">
        <ele>1149.341</ele>
        <time>2021-10-25T17:04:36Z</time>
      </trkpt>
      <trkpt lat="42.89918" lon="-0.04389">
        <ele>1151.76</ele>
        <time>2021-10-25T17:05:16Z</time>
      </trkpt>
      <trkpt lat="42.89911" lon="-0.04449">
        <ele>1161.216</ele>
        <time>2021-10-25T17:05:56Z</time>
      </trkpt>
      <trkpt lat="42.89911" lon="-0.0447">
        <ele>1161.399</ele>
        <time>2021-10-25T17:06:36Z</time>
      </trkpt>
      <trkpt lat="42.89914" lon="-0.04504">
        <ele>1158.274</ele>
        <time>2021-10-25T17:07:16Z</time>
      </trkpt>
      <trkpt lat="42.89917" lon="-0.04523">
        <ele>1156.157</ele>
        <time>2021-10-25T17:07:56Z</time>
      </trkpt>
      <trkpt lat="42.89923" lon="-0.04538">
        <ele>1150.987</ele>
        <time>2021-10-25T17:08:36Z</time>
      </trkpt>
      <trkpt lat="42.89926" lon="-0.04557">
        <ele>1147.697</ele>
        <time>2021-10-25T17:09:16Z</time>
      </trkpt>
      <trkpt lat="42.89929" lon="-0.04581">
        <ele>1145.181</ele>
        <time>2021-10-25T17:09:56Z</time>
      </trkpt>
      <trkpt lat="42.89927" lon="-0.04675">
        <ele>1145.961</ele>
        <time>2021-10-25T17:10:36Z</time>
      </trkpt>
      <trkpt lat="42.89928" lon="-0.04689">
        <ele>1143.517</ele>
        <time>2021-10-25T17:11:16Z</time>
      </trkpt>
      <trkpt lat="42.89932" lon="-0.04711">
        <ele>1138.708</ele>
        <time>2021-10-25T17:11:56Z</time>
      </trkpt>
      <trkpt lat="42.8994" lon="-0.04722">
        <ele>1133.956</ele>
        <time>2021-10-25T17:12:36Z</time>
      </trkpt>
      <trkpt lat="42.89951" lon="-0.04729">
        <ele>1134.335</ele>
        <time>2021-10-25T17:13:16Z</time>
      </trkpt>
      <trkpt lat="42.89959" lon="-0.04725">
        <ele>1133.621</ele>
        <time>2021-10-25T17:13:56Z</time>
      </trkpt>
      <trkpt lat="42.89976" lon="-0.04699">
        <ele>1126.564</ele>
        <time>2021-10-25T17:14:36Z</time>
      </trkpt>
      <trkpt lat="42.89996" lon="-0.0468">
        <ele>1124.419</ele>
        <time>2021-10-25T17:15:16Z</time>
      </trkpt>
      <trkpt lat="42.90014" lon="-0.04656">
        <ele>1122.892</ele>
        <time>2021-10-25T17:15:56Z</time>
      </trkpt>
      <trkpt lat="42.90021" lon="-0.04639">
        <ele>1120.412</ele>
        <time>2021-10-25T17:16:36Z</time>
      </trkpt>
      <trkpt lat="42.90036" lon="-0.04617">
        <ele>1122.932</ele>
        <time>2021-10-25T17:17:16Z</time>
      </trkpt>
      <trkpt lat="42.90049" lon="-0.04593">
        <ele>1124.529</ele>
        <time>2021-10-25T17:17:56Z</time>
      </trkpt>
      <trkpt lat="42.90053" lon="-0.04579">
        <ele>1123.7</ele>
        <time>2021-10-25T17:18:36Z</time>
      </trkpt>
      <trkpt lat="42.90057" lon="-0.04534">
        <ele>1112.62</ele>
        <time>2021-10-25T17:19:16Z</time>
      </trkpt>
      <trkpt lat="42.90061" lon="-0.04522">
        <ele>1112.208</ele>
        <time>2021-10-25T17:19:56Z</time>
      </trkpt>
      <trkpt lat="42.90072" lon="-0.04511">
        <ele>1114.65</ele>
        <time>2021-10-25T17:20:36Z</time>
      </trkpt>
      <trkpt lat="42.90086" lon="-0.04507">
        <ele>1119.539</ele>
        <time>2021-10-25T17:21:16Z</time>
      </trkpt>
      <trkpt lat="42.90108" lon="-0.04512">
        <ele>1129.775</ele>
        <time>2021-10-25T17:21:56Z</time>
      </trkpt>
      <trkpt lat="42.90119" lon="-0.04508">
        <ele>1130.468</ele>
        <time>2021-10-25T17:22:36Z</time>
      </trkpt>
      <trkpt lat="42.90144" lon="-0.04502">
        <ele>1131.613</ele>
        <time>2021-10-25T17:23:16Z</time>
      </trkpt>
      <trkpt lat="42.90151" lon="-0.04486">
        <ele>1124.326</ele>
        <time>2021-10-25T17:23:56Z</time>
      </trkpt>
      <trkpt lat="42.90159" lon="-0.04463">
        <ele>1115.366</ele>
        <time>2021-10-25T17:24:36Z</time>
      </trkpt>
      <trkpt lat="42.90172" lon="-0.04452">
        <ele>1115.216</ele>
        <time>2021-10-25T17:25:16Z</time>
      </trkpt>
      <trkpt lat="42.90201" lon="-0.04436">
        <ele>1121.957</ele>
        <time>2021-10-25T17:25:56Z</time>
      </trkpt>
      <trkpt lat="42.90205" lon="-0.04419">
        <ele>1115.7</ele>
        <time>2021-10-25T17:26:36Z</time>
      </trkpt>
      <trkpt lat="42.90212" lon="-0.04402">
        <ele>1111.42</ele>
        <time>2021-10-25T17:27:16Z</time>
      </trkpt>
      <trkpt lat="42.90223" lon="-0.0439">
        <ele>1109.908</ele>
        <time>2021-10-25T17:27:56Z</time>
      </trkpt>
      <trkpt lat="42.90234" lon="-0.04379">
        <ele>1106.513</ele>
        <time>2021-10-25T17:28:36Z</time>
      </trkpt>
      <trkpt lat="42.90244" lon="-0.04378">
        <ele>1107.962</ele>
        <time>2021-10-25T17:29:16Z</time>
      </trkpt>
      <trkpt lat="42.90263" lon="-0.04379">
        <ele>1114.398</ele>
        <time>2021-10-25T17:29:56Z</time>
      </trkpt>
      <trkpt lat="42.90271" lon="-0.04375">
        <ele>1114.611</ele>
        <time>2021-10-25T17:30:36Z</time>
      </trkpt>
      <trkpt lat="42.90314" lon="-0.04331">
        <ele>1108.956</ele>
        <time>2021-10-25T17:31:16Z</time>
      </trkpt>
      <trkpt lat="42.90331" lon="-0.04282">
        <ele>1097.499</ele>
        <time>2021-10-25T17:31:56Z</time>
      </trkpt>
      <trkpt lat="42.90357" lon="-0.04267">
        <ele>1097.549</ele>
        <time>2021-10-25T17:32:36Z</time>
      </trkpt>
      <trkpt lat="42.9038" lon="-0.04268">
        <ele>1097.269</ele>
        <time>2021-10-25T17:33:16Z</time>
      </trkpt>
      <trkpt lat="42.90406" lon="-0.04278">
        <ele>1096.026</ele>
        <time>2021-10-25T17:33:56Z</time>
      </trkpt>
      <trkpt lat="42.90422" lon="-0.04283">
        <ele>1093.947</ele>
        <time>2021-10-25T17:34:36Z</time>
      </trkpt>
      <trkpt lat="42.90447" lon="-0.04304">
        <ele>1094.011</ele>
        <time>2021-10-25T17:35:16Z</time>
      </trkpt>
      <trkpt lat="42.90476" lon="-0.04329">
        <ele>1090.308</ele>
        <time>2021-10-25T17:35:56Z</time>
      </trkpt>
      <trkpt lat="42.90552" lon="-0.04418">
        <ele>1084.11</ele>
        <time>2021-10-25T17:36:36Z</time>
      </trkpt>
      <trkpt lat="42.90579" lon="-0.04462">
        <ele>1083.589</ele>
        <time>2021-10-25T17:37:16Z</time>
      </trkpt>
      <trkpt lat="42.90589" lon="-0.04477">
        <ele>1082.425</ele>
        <time>2021-10-25T17:37:56Z</time>
      </trkpt>
      <trkpt lat="42.90597" lon="-0.04487">
        <ele>1080.868</ele>
        <time>2021-10-25T17:38:36Z</time>
      </trkpt>
      <trkpt lat="42.90614" lon="-0.04503">
        <ele>1075.873</ele>
        <time>2021-10-25T17:39:16Z</time>
      </trkpt>
      <trkpt lat="42.90622" lon="-0.04509">
        <ele>1074.686</ele>
        <time>2021-10-25T17:39:56Z</time>
      </trkpt>
      <trkpt lat="42.90633" lon="-0.04512">
        <ele>1070.046</ele>
        <time>2021-10-25T17:40:36Z</time>
      </trkpt>
      <trkpt lat="42.90648" lon="-0.0451">
        <ele>1064.036</ele>
        <time>2021-10-25T17:41:16Z</time>
      </trkpt>
      <trkpt lat="42.90664" lon="-0.04511">
        <ele>1059.537</ele>
        <time>2021-10-25T17:41:56Z</time>
      </trkpt>
      <trkpt lat="42.90675" lon="-0.04512">
        <ele>1057.849</ele>
        <time>2021-10-25T17:42:36Z</time>
      </trkpt>
      <trkpt lat="42.90692" lon="-0.04519">
        <ele>1057.613</ele>
        <time>2021-10-25T17:43:16Z</time>
      </trkpt>
      <trkpt lat="42.90714" lon="-0.04538">
        <ele>1058.908</ele>
        <time>2021-10-25T17:43:56Z</time>
      </trkpt>
      <trkpt lat="42.90734" lon="-0.04565">
        <ele>1058.751</ele>
        <time>2021-10-25T17:44:36Z</time>
      </trkpt>
      <trkpt lat="42.90748" lon="-0.04591">
        <ele>1057.46</ele>
        <time>2021-10-25T17:45:16Z</time>
      </trkpt>
      <trkpt lat="42.90762" lon="-0.0463">
        <ele>1055.146</ele>
        <time>2021-10-25T17:45:56Z</time>
      </trkpt>
      <trkpt lat="42.90773" lon="-0.04663">
        <ele>1054.739</ele>
        <time>2021-10-25T17:46:36Z</time>
      </trkpt>
      <trkpt lat="42.90778" lon="-0.04669">
        <ele>1053.664</ele>
        <time>2021-10-25T17:47:16Z</time>
      </trkpt>
      <trkpt lat="42.9079" lon="-0.04676">
        <ele>1049.417</ele>
        <time>2021-10-25T17:47:56Z</time>
      </trkpt>
      <trkpt lat="42.90836" lon="-0.04663">
        <ele>1024.957</ele>
        <time>2021-10-25T17:48:36Z</time>
      </trkpt>
      <trkpt lat="42.90842" lon="-0.0465">
        <ele>1020.027</ele>
        <time>2021-10-25T17:49:16Z</time>
      </trkpt>
      <trkpt lat="42.90844" lon="-0.04618">
        <ele>1011.163</ele>
        <time>2021-10-25T17:49:56Z</time>
      </trkpt>
      <trkpt lat="42.90851" lon="-0.04612">
        <ele>1006.344</ele>
        <time>2021-10-25T17:50:36Z</time>
      </trkpt>
      <trkpt lat="42.90892" lon="-0.04631">
        <ele>995.418</ele>
        <time>2021-10-25T17:51:16Z</time>
      </trkpt>
      <trkpt lat="42.9093" lon="-0.04639">
        <ele>985.708</ele>
        <time>2021-10-25T17:51:56Z</time>
      </trkpt>
      <trkpt lat="42.90942" lon="-0.04635">
        <ele>981.534</ele>
        <time>2021-10-25T17:52:36Z</time>
      </trkpt>
      <trkpt lat="42.9096" lon="-0.0462">
        <ele>974.113</ele>
        <time>2021-10-25T17:53:16Z</time>
      </trkpt>
      <trkpt lat="42.90969" lon="-0.04606">
        <ele>967.979</ele>
        <time>2021-10-25T17:53:56Z</time>
      </trkpt>
      <trkpt lat="42.90976" lon="-0.04568">
        <ele>952.912</ele>
        <time>2021-10-25T17:54:36Z</time>
      </trkpt>
      <trkpt lat="42.90987" lon="-0.04561">
        <ele>946.667</ele>
        <time>2021-10-25T17:55:16Z</time>
      </trkpt>
      <trkpt lat="42.91006" lon="-0.04569">
        <ele>944.29</ele>
        <time>2021-10-25T17:55:56Z</time>
      </trkpt>
      <trkpt lat="42.91041" lon="-0.04585">
        <ele>938.81</ele>
        <time>2021-10-25T17:56:36Z</time>
      </trkpt>
      <trkpt lat="42.91024" lon="-0.04528">
        <ele>922.24</ele>
        <time>2021-10-25T17:57:16Z</time>
      </trkpt>
      <trkpt lat="42.90999" lon="-0.04478">
        <ele>914.336</ele>
        <time>2021-10-25T17:57:56Z</time>
      </trkpt>
      <trkpt lat="42.9102" lon="-0.04458">
        <ele>899.717</ele>
        <time>2021-10-25T17:58:36Z</time>
      </trkpt>
      <trkpt lat="42.91035" lon="-0.04441">
        <ele>888.518</ele>
        <time>2021-10-25T17:59:16Z</time>
      </trkpt>
      <trkpt lat="42.91055" lon="-0.04381">
        <ele>866.508</ele>
        <time>2021-10-25T17:59:56Z</time>
      </trkpt>
      <trkpt lat="42.91065" lon="-0.04335">
        <ele>855.941</ele>
        <time>2021-10-25T18:00:36Z</time>
      </trkpt>
      <trkpt lat="42.91042" lon="-0.04336">
        <ele>859.04</ele>
        <time>2021-10-25T18:01:16Z</time>
      </trkpt>
      <trkpt lat="42.91037" lon="-0.04322">
        <ele>856.946</ele>
        <time>2021-10-25T18:01:56Z</time>
      </trkpt>
      <trkpt lat="42.91021" lon="-0.043">
        <ele>855.879</ele>
        <time>2021-10-25T18:02:36Z</time>
      </trkpt>
      <trkpt lat="42.91012" lon="-0.04278">
        <ele>855.144</ele>
        <time>2021-10-25T18:03:16Z</time>
      </trkpt>
      <trkpt lat="42.90995" lon="-0.0427">
        <ele>857.847</ele>
        <time>2021-10-25T18:03:56Z</time>
      </trkpt>
      <trkpt lat="42.90978" lon="-0.04266">
        <ele>861.997</ele>
        <time>2021-10-25T18:04:36Z</time>
      </trkpt>
      <trkpt lat="42.90932" lon="-0.04227">
        <ele>862.927</ele>
        <time>2021-10-25T18:05:16Z</time>
      </trkpt>
      <trkpt lat="42.90886" lon="-0.04195">
        <ele>859.953</ele>
        <time>2021-10-25T18:05:56Z</time>
      </trkpt>
      <trkpt lat="42.90851" lon="-0.04174">
        <ele>857.804</ele>
        <time>2021-10-25T18:06:36Z</time>
      </trkpt>
      <trkpt lat="42.9083" lon="-0.04169">
        <ele>860.614</ele>
        <time>2021-10-25T18:07:16Z</time>
      </trkpt>
      <trkpt lat="42.90788" lon="-0.04147">
        <ele>859.808</ele>
        <time>2021-10-25T18:07:56Z</time>
      </trkpt>
      <trkpt lat="42.90769" lon="-0.04136">
        <ele>860.123</ele>
        <time>2021-10-25T18:08:36Z</time>
      </trkpt>
      <trkpt lat="42.90751" lon="-0.04132">
        <ele>863.572</ele>
        <time>2021-10-25T18:09:16Z</time>
      </trkpt>
      <trkpt lat="42.90725" lon="-0.04113">
        <ele>865.968</ele>
        <time>2021-10-25T18:09:56Z</time>
      </trkpt>
      <trkpt lat="42.90715" lon="-0.04107">
        <ele>867.131</ele>
        <time>2021-10-25T18:10:36Z</time>
      </trkpt>
      <trkpt lat="42.90708" lon="-0.04092">
        <ele>861.666</ele>
        <time>2021-10-25T18:11:16Z</time>
      </trkpt>
      <trkpt lat="42.90699" lon="-0.04076">
        <ele>856.239</ele>
        <time>2021-10-25T18:11:56Z</time>
      </trkpt>
      <trkpt lat="42.90689" lon="-0.04061">
        <ele>851.889</ele>
        <time>2021-10-25T18:12:36Z</time>
      </trkpt>
      <trkpt lat="42.9068" lon="-0.04036">
        <ele>841.999</ele>
        <time>2021-10-25T18:13:16Z</time>
      </trkpt>
      <trkpt lat="42.90644" lon="-0.0401">
        <ele>844.188</ele>
        <time>2021-10-25T18:13:56Z</time>
      </trkpt>
      <trkpt lat="42.90627" lon="-0.04005">
        <ele>847.824</ele>
        <time>2021-10-25T18:14:36Z</time>
      </trkpt>
      <trkpt lat="42.90613" lon="-0.04004">
        <ele>851.826</ele>
        <time>2021-10-25T18:15:16Z</time>
      </trkpt>
      <trkpt lat="42.90597" lon="-0.04002">
        <ele>856.208</ele>
        <time>2021-10-25T18:15:56Z</time>
      </trkpt>
      <trkpt lat="42.9053" lon="-0.0396">
        <ele>856.266</ele>
        <time>2021-10-25T18:16:36Z</time>
      </trkpt>
      <trkpt lat="42.90523" lon="-0.03945">
        <ele>849.415</ele>
        <time>2021-10-25T18:17:16Z</time>
      </trkpt>
      <trkpt lat="42.90517" lon="-0.0393">
        <ele>842.521</ele>
        <time>2021-10-25T18:17:56Z</time>
      </trkpt>
      <trkpt lat="42.9051" lon="-0.03924">
        <ele>840.624</ele>
        <time>2021-10-25T18:18:36Z</time>
      </trkpt>
      <trkpt lat="42.90481" lon="-0.03912">
        <ele>843.369</ele>
        <time>2021-10-25T18:19:16Z</time>
      </trkpt>
      <trkpt lat="42.90468" lon="-0.03905">
        <ele>844.292</ele>
        <time>2021-10-25T18:19:56Z</time>
      </trkpt>
      <trkpt lat="42.90446" lon="-0.03889">
        <ele>846.162</ele>
        <time>2021-10-25T18:20:36Z</time>
      </trkpt>
      <trkpt lat="42.90417" lon="-0.03861">
        <ele>843.872</ele>
        <time>2021-10-25T18:21:16Z</time>
      </trkpt>
      <trkpt lat="42.90397" lon="-0.03835">
        <ele>837.015</ele>
        <time>2021-10-25T18:21:56Z</time>
      </trkpt>
      <trkpt lat="42.90376" lon="-0.03815">
        <ele>834.565</ele>
        <time>2021-10-25T18:22:36Z</time>
      </trkpt>
      <trkpt lat="42.90348" lon="-0.03795">
        <ele>832.511</ele>
        <time>2021-10-25T18:23:16Z</time>
      </trkpt>
      <trkpt lat="42.90326" lon="-0.03789">
        <ele>832.408</ele>
        <time>2021-10-25T18:23:56Z</time>
      </trkpt>
      <trkpt lat="42.90311" lon="-0.03783">
        <ele>828.949</ele>
        <time>2021-10-25T18:24:36Z</time>
      </trkpt>
      <trkpt lat="42.903" lon="-0.03779">
        <ele>825.678</ele>
        <time>2021-10-25T18:25:16Z</time>
      </trkpt>
      <trkpt lat="42.90293" lon="-0.03781">
        <ele>825.764</ele>
        <time>2021-10-25T18:25:56Z</time>
      </trkpt>
      <trkpt lat="42.90287" lon="-0.03791">
        <ele>828.627</ele>
        <time>2021-10-25T18:26:36Z</time>
      </trkpt>
      <trkpt lat="42.9027" lon="-0.03821">
        <ele>838.472</ele>
        <time>2021-10-25T18:27:16Z</time>
      </trkpt>
      <trkpt lat="42.9026" lon="-0.03825">
        <ele>840.155</ele>
        <time>2021-10-25T18:27:56Z</time>
      </trkpt>
      <trkpt lat="42.90248" lon="-0.03817">
        <ele>840.095</ele>
        <time>2021-10-25T18:28:36Z</time>
      </trkpt>
      <trkpt lat="42.90236" lon="-0.03794">
        <ele>840.545</ele>
        <time>2021-10-25T18:29:16Z</time>
      </trkpt>
      <trkpt lat="42.90223" lon="-0.03773">
        <ele>840.771</ele>
        <time>2021-10-25T18:29:56Z</time>
      </trkpt>
      <trkpt lat="42.90215" lon="-0.03762">
        <ele>843.041</ele>
        <time>2021-10-25T18:30:36Z</time>
      </trkpt>
      <trkpt lat="42.90189" lon="-0.03727">
        <ele>849.115</ele>
        <time>2021-10-25T18:31:16Z</time>
      </trkpt>
      <trkpt lat="42.90167" lon="-0.03694">
        <ele>854.008</ele>
        <time>2021-10-25T18:31:56Z</time>
      </trkpt>
      <trkpt lat="42.90149" lon="-0.03659">
        <ele>854.285</ele>
        <time>2021-10-25T18:32:36Z</time>
      </trkpt>
      <trkpt lat="42.90128" lon="-0.03604">
        <ele>849.314</ele>
        <time>2021-10-25T18:33:16Z</time>
      </trkpt>
      <trkpt lat="42.90109" lon="-0.03551">
        <ele>843.57</ele>
        <time>2021-10-25T18:33:56Z</time>
      </trkpt>
      <trkpt lat="42.90099" lon="-0.03519">
        <ele>838.273</ele>
        <time>2021-10-25T18:34:36Z</time>
      </trkpt>
      <trkpt lat="42.90087" lon="-0.03495">
        <ele>836.198</ele>
        <time>2021-10-25T18:35:16Z</time>
      </trkpt>
      <trkpt lat="42.90074" lon="-0.03476">
        <ele>835.421</ele>
        <time>2021-10-25T18:35:56Z</time>
      </trkpt>
      <trkpt lat="42.90056" lon="-0.03459">
        <ele>837.841</ele>
        <time>2021-10-25T18:36:36Z</time>
      </trkpt>
      <trkpt lat="42.9004" lon="-0.03442">
        <ele>838.351</ele>
        <time>2021-10-25T18:37:16Z</time>
      </trkpt>
      <trkpt lat="42.9003" lon="-0.03423">
        <ele>835.649</ele>
        <time>2021-10-25T18:37:56Z</time>
      </trkpt>
      <trkpt lat="42.90013" lon="-0.03396">
        <ele>832.302</ele>
        <time>2021-10-25T18:38:36Z</time>
      </trkpt>
      <trkpt lat="42.89996" lon="-0.03378">
        <ele>833.222</ele>
        <time>2021-10-25T18:39:16Z</time>
      </trkpt>
      <trkpt lat="42.89952" lon="-0.03349">
        <ele>833.608</ele>
        <time>2021-10-25T18:39:56Z</time>
      </trkpt>
      <trkpt lat="42.89918" lon="-0.03337">
        <ele>832.092</ele>
        <time>2021-10-25T18:40:36Z</time>
      </trkpt>
      <trkpt lat="42.89908" lon="-0.03329">
        <ele>827.511</ele>
        <time>2021-10-25T18:41:16Z</time>
      </trkpt>
      <trkpt lat="42.89896" lon="-0.03325">
        <ele>824.747</ele>
        <time>2021-10-25T18:41:56Z</time>
      </trkpt>
      <trkpt lat="42.8987" lon="-0.03326">
        <ele>825.54</ele>
        <time>2021-10-25T18:42:36Z</time>
      </trkpt>
      <trkpt lat="42.89853" lon="-0.03324">
        <ele>825.555</ele>
        <time>2021-10-25T18:43:16Z</time>
      </trkpt>
      <trkpt lat="42.89832" lon="-0.03314">
        <ele>822.718</ele>
        <time>2021-10-25T18:43:56Z</time>
      </trkpt>
      <trkpt lat="42.89812" lon="-0.03307">
        <ele>822.158</ele>
        <time>2021-10-25T18:44:36Z</time>
      </trkpt>
      <trkpt lat="42.8979" lon="-0.03302">
        <ele>823.068</ele>
        <time>2021-10-25T18:45:16Z</time>
      </trkpt>
      <trkpt lat="42.89759" lon="-0.03295">
        <ele>824.717</ele>
        <time>2021-10-25T18:45:56Z</time>
      </trkpt>
      <trkpt lat="42.89734" lon="-0.03284">
        <ele>823.787</ele>
        <time>2021-10-25T18:46:36Z</time>
      </trkpt>
      <trkpt lat="42.89709" lon="-0.03265">
        <ele>820.015</ele>
        <time>2021-10-25T18:47:16Z</time>
      </trkpt>
      <trkpt lat="42.89688" lon="-0.03242">
        <ele>814.208</ele>
        <time>2021-10-25T18:47:56Z</time>
      </trkpt>
      <trkpt lat="42.89667" lon="-0.03223">
        <ele>811.749</ele>
        <time>2021-10-25T18:48:36Z</time>
      </trkpt>
      <trkpt lat="42.89635" lon="-0.03205">
        <ele>812.718</ele>
        <time>2021-10-25T18:49:16Z</time>
      </trkpt>
      <trkpt lat="42.89604" lon="-0.03187">
        <ele>815.974</ele>
        <time>2021-10-25T18:49:56Z</time>
      </trkpt>
      <trkpt lat="42.89554" lon="-0.03158">
        <ele>820.127</ele>
        <time>2021-10-25T18:50:36Z</time>
      </trkpt>
      <trkpt lat="42.89519" lon="-0.03127">
        <ele>816.842</ele>
        <time>2021-10-25T18:51:16Z</time>
      </trkpt>
      <trkpt lat="42.89473" lon="-0.03082">
        <ele>807.795</ele>
        <time>2021-10-25T18:51:56Z</time>
      </trkpt>
      <trkpt lat="42.89444" lon="-0.03097">
        <ele>828.155</ele>
        <time>2021-10-25T18:52:36Z</time>
      </trkpt>
      <trkpt lat="42.8944" lon="-0.03098">
        <ele>829.195</ele>
        <time>2021-10-25T18:53:16Z</time>
      </trkpt>
      <trkpt lat="42.89433" lon="-0.03088">
        <ele>824.696</ele>
        <time>2021-10-25T18:53:56Z</time>
      </trkpt>
      <trkpt lat="42.89423" lon="-0.03067">
        <ele>815.031</ele>
        <time>2021-10-25T18:54:36Z</time>
      </trkpt>
      <trkpt lat="42.89399" lon="-0.03064">
        <ele>814.724</ele>
        <time>2021-10-25T18:55:16Z</time>
      </trkpt>
      <trkpt lat="42.89392" lon="-0.03066">
        <ele>815.608</ele>
        <time>2021-10-25T18:55:56Z</time>
      </trkpt>
      <trkpt lat="42.8938" lon="-0.031">
        <ele>828.647</ele>
        <time>2021-10-25T18:56:36Z</time>
      </trkpt>
      <trkpt lat="42.89375" lon="-0.03103">
        <ele>829.516</ele>
        <time>2021-10-25T18:57:16Z</time>
      </trkpt>
      <trkpt lat="42.89368" lon="-0.03098">
        <ele>826.052</ele>
        <time>2021-10-25T18:57:56Z</time>
      </trkpt>
      <trkpt lat="42.89351" lon="-0.03079">
        <ele>818.845</ele>
        <time>2021-10-25T18:58:36Z</time>
      </trkpt>
      <trkpt lat="42.89334" lon="-0.03055">
        <ele>810.85</ele>
        <time>2021-10-25T18:59:16Z</time>
      </trkpt>
      <trkpt lat="42.8931" lon="-0.03038">
        <ele>813.873</ele>
        <time>2021-10-25T18:59:56Z</time>
      </trkpt>
      <trkpt lat="42.89285" lon="-0.03027">
        <ele>820.283</ele>
        <time>2021-10-25T19:00:36Z</time>
      </trkpt>
      <trkpt lat="42.8927" lon="-0.03025">
        <ele>826.643</ele>
        <time>2021-10-25T19:01:16Z</time>
      </trkpt>
      <trkpt lat="42.89241" lon="-0.03014">
        <ele>833.127</ele>
        <time>2021-10-25T19:01:56Z</time>
      </trkpt>
      <trkpt lat="42.89119" lon="-0.02926">
        <ele>834.568</ele>
        <time>2021-10-25T19:02:36Z</time>
      </trkpt>
      <trkpt lat="42.89086" lon="-0.02904">
        <ele>836.314</ele>
        <time>2021-10-25T19:03:16Z</time>
      </trkpt>
      <trkpt lat="42.89061" lon="-0.02887">
        <ele>838.108</ele>
        <time>2021-10-25T19:03:56Z</time>
      </trkpt>
      <trkpt lat="42.89045" lon="-0.02872">
        <ele>837.86</ele>
        <time>2021-10-25T19:04:36Z</time>
      </trkpt>
      <trkpt lat="42.89027" lon="-0.02841">
        <ele>833.219</ele>
        <time>2021-10-25T19:05:16Z</time>
      </trkpt>
      <trkpt lat="42.88957" lon="-0.02765">
        <ele>839.065</ele>
        <time>2021-10-25T19:05:56Z</time>
      </trkpt>
      <trkpt lat="42.88941" lon="-0.02746">
        <ele>839.698</ele>
        <time>2021-10-25T19:06:36Z</time>
      </trkpt>
      <trkpt lat="42.88933" lon="-0.0273">
        <ele>837.383</ele>
        <time>2021-10-25T19:07:16Z</time>
      </trkpt>
      <trkpt lat="42.88919" lon="-0.02706">
        <ele>834.776</ele>
        <time>2021-10-25T19:07:56Z</time>
      </trkpt>
      <trkpt lat="42.88864" lon="-0.0264">
        <ele>837.356</ele>
        <time>2021-10-25T19:08:36Z</time>
      </trkpt>
      <trkpt lat="42.88832" lon="-0.02607">
        <ele>836.966</ele>
        <time>2021-10-25T19:09:16Z</time>
      </trkpt>
      <trkpt lat="42.88815" lon="-0.02596">
        <ele>838.791</ele>
        <time>2021-10-25T19:09:56Z</time>
      </trkpt>
      <trkpt lat="42.88797" lon="-0.02595">
        <ele>842.781</ele>
        <time>2021-10-25T19:10:36Z</time>
      </trkpt>
      <trkpt lat="42.88779" lon="-0.02598">
        <ele>846.019</ele>
        <time>2021-10-25T19:11:16Z</time>
      </trkpt>
      <trkpt lat="42.88754" lon="-0.02605">
        <ele>846.508</ele>
        <time>2021-10-25T19:11:56Z</time>
      </trkpt>
      <trkpt lat="42.88741" lon="-0.02613">
        <ele>845.697</ele>
        <time>2021-10-25T19:12:36Z</time>
      </trkpt>
      <trkpt lat="42.88716" lon="-0.02637">
        <ele>845.116</ele>
        <time>2021-10-25T19:13:16Z</time>
      </trkpt>
      <trkpt lat="42.88708" lon="-0.02644">
        <ele>845.112</ele>
        <time>2021-10-25T19:13:56Z</time>
      </trkpt>
      <trkpt lat="42.88695" lon="-0.02644">
        <ele>843.675</ele>
        <time>2021-10-25T19:14:36Z</time>
      </trkpt>
      <trkpt lat="42.88684" lon="-0.02648">
        <ele>841.59</ele>
        <time>2021-10-25T19:15:16Z</time>
      </trkpt>
      <trkpt lat="42.88674" lon="-0.02662">
        <ele>839.823</ele>
        <time>2021-10-25T19:15:56Z</time>
      </trkpt>
      <trkpt lat="42.88656" lon="-0.02691">
        <ele>840.383</ele>
        <time>2021-10-25T19:16:36Z</time>
      </trkpt>
      <trkpt lat="42.88625" lon="-0.02698">
        <ele>840.333</ele>
        <time>2021-10-25T19:17:16Z</time>
      </trkpt>
      <trkpt lat="42.88601" lon="-0.02698">
        <ele>840.793</ele>
        <time>2021-10-25T19:17:56Z</time>
      </trkpt>
      <trkpt lat="42.88592" lon="-0.02696">
        <ele>840.565</ele>
        <time>2021-10-25T19:18:36Z</time>
      </trkpt>
      <trkpt lat="42.88581" lon="-0.02689">
        <ele>839.321</ele>
        <time>2021-10-25T19:19:16Z</time>
      </trkpt>
      <trkpt lat="42.88568" lon="-0.02673">
        <ele>838.008</ele>
        <time>2021-10-25T19:19:56Z</time>
      </trkpt>
      <trkpt lat="42.8853" lon="-0.0264">
        <ele>835.947</ele>
        <time>2021-10-25T19:20:36Z</time>
      </trkpt>
      <trkpt lat="42.88525" lon="-0.02635">
        <ele>836.146</ele>
        <time>2021-10-25T19:21:16Z</time>
      </trkpt>
      <trkpt lat="42.88516" lon="-0.02622">
        <ele>836.052</ele>
        <time>2021-10-25T19:21:56Z</time>
      </trkpt>
      <trkpt lat="42.88506" lon="-0.02594">
        <ele>833.855</ele>
        <time>2021-10-25T19:22:36Z</time>
      </trkpt>
      <trkpt lat="42.88498" lon="-0.02585">
        <ele>833.53</ele>
        <time>2021-10-25T19:23:16Z</time>
      </trkpt>
      <trkpt lat="42.88489" lon="-0.02575">
        <ele>833.293</ele>
        <time>2021-10-25T19:23:56Z</time>
      </trkpt>
      <trkpt lat="42.88484" lon="-0.0255">
        <ele>829.323</ele>
        <time>2021-10-25T19:24:36Z</time>
      </trkpt>
      <trkpt lat="42.88478" lon="-0.02545">
        <ele>829.073</ele>
        <time>2021-10-25T19:25:16Z</time>
      </trkpt>
      <trkpt lat="42.88471" lon="-0.02536">
        <ele>828.437</ele>
        <time>2021-10-25T19:25:56Z</time>
      </trkpt>
      <trkpt lat="42.88464" lon="-0.02524">
        <ele>827.549</ele>
        <time>2021-10-25T19:26:36Z</time>
      </trkpt>
      <trkpt lat="42.88455" lon="-0.02515">
        <ele>827.513</ele>
        <time>2021-10-25T19:27:16Z</time>
      </trkpt>
      <trkpt lat="42.88445" lon="-0.02509">
        <ele>827.808</ele>
        <time>2021-10-25T19:27:56Z</time>
      </trkpt>
      <trkpt lat="42.88436" lon="-0.02503">
        <ele>829.131</ele>
        <time>2021-10-25T19:28:36Z</time>
      </trkpt>
      <trkpt lat="42.88421" lon="-0.02486">
        <ele>831.14</ele>
        <time>2021-10-25T19:29:16Z</time>
      </trkpt>
      <trkpt lat="42.88398" lon="-0.02471">
        <ele>834.996</ele>
        <time>2021-10-25T19:29:56Z</time>
      </trkpt>
    </trkseg>
  </trk>
</gpx>